createdAt,value
2017-07-22T00:00:31.588Z,18.70
2017-07-22T00:03:01.483Z,18.70
2017-07-22T00:05:31.378Z,18.70
2017-07-22T00:08:02.198Z,18.60
2017-07-22T00:10:31.874Z,18.40
2017-07-22T00:13:01.772Z,18.40
2017-07-22T00:15:31.755Z,18.60
2017-07-22T00:18:01.525Z,18.40
2017-07-22T00:20:31.998Z,18.20
2017-07-22T00:23:01.839Z,17.90
2017-07-22T00:25:31.933Z,17.90
2017-07-22T00:28:04.170Z,18.10
2017-07-22T00:30:34.031Z,18.30
2017-07-22T00:33:04.127Z,18.00
2017-07-22T00:35:34.131Z,17.90
2017-07-22T00:38:05.776Z,18.10
2017-07-22T00:40:36.508Z,18.20
2017-07-22T00:43:07.110Z,18.10
2017-07-22T00:45:37.198Z,18.00
2017-07-22T00:48:07.496Z,18.00
2017-07-22T00:50:37.324Z,18.00
2017-07-22T00:53:07.101Z,18.00
2017-07-22T00:55:36.879Z,18.00
2017-07-22T00:58:06.391Z,18.00
2017-07-22T01:00:36.247Z,17.90
2017-07-22T01:03:05.794Z,17.90
2017-07-22T01:05:35.856Z,17.90
2017-07-22T01:08:07.678Z,17.40
2017-07-22T01:10:37.588Z,17.40
2017-07-22T01:13:07.371Z,17.40
2017-07-22T01:15:37.172Z,17.20
2017-07-22T01:18:07.091Z,17.30
2017-07-22T01:20:37.305Z,17.30
2017-07-22T01:23:07.348Z,17.30
2017-07-22T01:25:37.087Z,17.40
2017-07-22T01:28:06.944Z,17.20
2017-07-22T01:30:37.131Z,17.10
2017-07-22T01:33:07.845Z,17.40
2017-07-22T01:35:37.744Z,17.20
2017-07-22T01:38:07.973Z,17.40
2017-07-22T01:40:38.194Z,17.40
2017-07-22T01:43:08.322Z,17.60
2017-07-22T01:45:38.156Z,17.60
2017-07-22T01:48:08.142Z,17.60
2017-07-22T01:50:38.081Z,17.60
2017-07-22T01:53:08.782Z,17.40
2017-07-22T01:55:38.910Z,17.20
2017-07-22T01:58:08.584Z,17.20
2017-07-22T02:00:39.115Z,16.90
2017-07-22T02:03:08.907Z,17.10
2017-07-22T02:05:38.657Z,17.10
2017-07-22T02:08:08.322Z,17.10
2017-07-22T02:10:37.869Z,17.10
2017-07-22T02:13:07.837Z,17.00
2017-07-22T02:15:37.593Z,17.00
2017-07-22T02:18:07.202Z,16.80
2017-07-22T02:20:36.765Z,16.70
2017-07-22T02:23:06.780Z,16.70
2017-07-22T02:25:36.682Z,16.70
2017-07-22T02:28:06.674Z,16.50
2017-07-22T02:30:37.119Z,16.50
2017-07-22T02:33:07.432Z,16.60
2017-07-22T02:35:37.280Z,16.50
2017-07-22T02:38:07.442Z,16.70
2017-07-22T02:40:37.323Z,16.70
2017-07-22T02:43:07.913Z,17.00
2017-07-22T02:45:38.271Z,16.90
2017-07-22T02:48:08.183Z,17.20
2017-07-22T02:50:37.930Z,17.10
2017-07-22T02:53:08.383Z,16.50
2017-07-22T02:55:37.992Z,16.40
2017-07-22T02:58:07.511Z,16.50
2017-07-22T03:00:37.127Z,16.70
2017-07-22T03:03:06.703Z,16.80
2017-07-22T03:05:36.856Z,16.90
2017-07-22T03:08:06.949Z,16.80
2017-07-22T03:10:36.595Z,16.50
2017-07-22T03:13:06.880Z,16.40
2017-07-22T03:15:36.819Z,16.70
2017-07-22T03:18:07.699Z,16.80
2017-07-22T03:20:37.671Z,16.70
2017-07-22T03:23:07.722Z,16.80
2017-07-22T03:25:39.750Z,16.80
2017-07-22T03:28:09.774Z,16.70
2017-07-22T03:30:39.739Z,16.70
2017-07-22T03:33:09.559Z,16.70
2017-07-22T03:35:39.695Z,16.80
2017-07-22T03:38:10.364Z,16.70
2017-07-22T03:40:40.134Z,16.60
2017-07-22T03:43:10.482Z,16.70
2017-07-22T03:45:40.975Z,16.90
2017-07-22T03:48:10.807Z,17.00
2017-07-22T03:50:41.022Z,16.90
2017-07-22T03:53:10.835Z,16.90
2017-07-22T03:55:40.835Z,16.80
2017-07-22T03:58:11.289Z,16.90
2017-07-22T04:00:41.154Z,16.90
2017-07-22T04:03:10.692Z,16.90
2017-07-22T04:05:40.728Z,16.90
2017-07-22T04:08:11.264Z,16.90
2017-07-22T04:10:40.806Z,16.90
2017-07-22T04:13:10.371Z,16.90
2017-07-22T04:15:40.018Z,17.00
2017-07-22T04:18:10.396Z,17.00
2017-07-22T04:20:40.667Z,17.10
2017-07-22T04:23:10.422Z,17.10
2017-07-22T04:25:40.232Z,17.20
2017-07-22T04:28:10.195Z,17.40
2017-07-22T04:30:40.252Z,17.30
2017-07-22T04:33:09.799Z,17.20
2017-07-22T04:35:39.338Z,17.30
2017-07-22T04:38:09.167Z,17.40
2017-07-22T04:40:38.687Z,17.40
2017-07-22T04:43:08.372Z,17.60
2017-07-22T04:45:37.919Z,17.60
2017-07-22T04:48:07.523Z,17.60
2017-07-22T04:50:37.707Z,17.80
2017-07-22T04:56:08.481Z,18.20
2017-07-22T04:58:38.831Z,18.50
2017-07-22T05:01:08.527Z,18.60
2017-07-22T05:03:39.311Z,20.10
2017-07-22T05:06:09.098Z,20.10
2017-07-22T05:08:48.288Z,21.40
2017-07-22T05:11:18.456Z,21.80
2017-07-22T05:13:48.503Z,21.50
2017-07-22T05:16:18.347Z,20.90
2017-07-22T05:18:48.385Z,20.40
2017-07-22T05:25:48.215Z,20.00
2017-07-22T05:28:18.153Z,19.90
2017-07-22T05:30:48.009Z,19.50
2017-07-22T05:33:18.017Z,19.40
2017-07-22T05:35:48.220Z,19.30
2017-07-22T05:38:18.427Z,19.20
2017-07-22T05:40:48.268Z,19.10
2017-07-22T05:43:19.781Z,19.10
2017-07-22T05:45:49.812Z,19.10
2017-07-22T05:48:20.232Z,19.10
2017-07-22T05:51:02.285Z,19.10
2017-07-22T05:53:33.208Z,18.80
2017-07-22T05:56:03.491Z,18.80
2017-07-22T05:58:33.291Z,18.70
2017-07-22T06:01:03.154Z,18.60
2017-07-22T06:03:33.607Z,18.70
2017-07-22T06:06:03.399Z,18.80
2017-07-22T06:08:34.811Z,18.90
2017-07-22T06:11:05.178Z,19.00
2017-07-22T06:13:35.187Z,19.10
2017-07-22T06:16:05.151Z,19.40
2017-07-22T06:18:36.927Z,19.90
2017-07-22T06:21:22.338Z,19.90
2017-07-22T06:24:00.499Z,20.30
2017-07-22T06:26:58.159Z,20.90
2017-07-22T06:32:20.174Z,21.30
2017-07-22T06:34:50.914Z,21.60
2017-07-22T06:37:20.568Z,21.80
2017-07-22T06:39:50.914Z,21.80
2017-07-22T06:42:20.576Z,21.50
2017-07-22T06:44:51.762Z,21.20
2017-07-22T06:47:23.367Z,21.20
2017-07-22T06:50:05.579Z,20.90
2017-07-22T06:52:54.107Z,20.80
2017-07-22T06:55:24.938Z,20.50
2017-07-22T06:57:58.394Z,20.50
2017-07-22T07:00:28.979Z,20.20
2017-07-22T07:02:59.268Z,20.10
2017-07-22T07:05:29.171Z,20.00
2017-07-22T07:07:58.747Z,19.80
2017-07-22T07:10:28.757Z,19.50
2017-07-22T07:12:59.371Z,19.60
2017-07-22T07:18:13.047Z,19.80
2017-07-22T07:20:42.582Z,19.70
2017-07-22T07:23:12.591Z,20.00
2017-07-22T07:25:49.746Z,19.80
2017-07-22T07:28:33.791Z,20.00
2017-07-22T07:31:03.454Z,20.30
2017-07-22T07:34:17.234Z,20.50
2017-07-22T07:36:46.951Z,20.80
2017-07-22T07:39:16.610Z,20.90
2017-07-22T07:41:46.188Z,20.90
2017-07-22T07:44:15.791Z,20.90
2017-07-22T07:46:46.290Z,21.10
2017-07-22T07:49:15.819Z,21.30
2017-07-22T07:51:45.414Z,21.60
2017-07-22T07:54:15.638Z,21.50
2017-07-22T07:56:45.219Z,21.50
2017-07-22T07:59:14.802Z,21.90
2017-07-22T08:01:44.651Z,22.10
2017-07-22T08:04:14.411Z,22.20
2017-07-22T08:06:45.215Z,22.30
2017-07-22T08:09:15.054Z,22.20
2017-07-22T08:11:44.670Z,22.20
2017-07-22T08:14:14.521Z,22.30
2017-07-22T08:16:44.039Z,22.20
2017-07-22T08:19:13.651Z,22.30
2017-07-22T08:21:43.664Z,22.70
2017-07-22T08:24:13.490Z,22.70
2017-07-22T08:26:43.297Z,23.10
2017-07-22T08:29:12.882Z,23.30
2017-07-22T08:31:42.814Z,23.40
2017-07-22T08:34:13.003Z,23.90
2017-07-22T08:36:42.519Z,24.50
2017-07-22T08:39:12.521Z,24.80
2017-07-22T08:41:42.026Z,24.70
2017-07-22T08:44:11.654Z,24.40
2017-07-22T08:46:41.651Z,23.20
2017-07-22T08:49:11.590Z,22.70
2017-07-22T08:51:41.131Z,22.50
2017-07-22T08:54:11.375Z,23.20
2017-07-22T08:56:41.386Z,24.40
2017-07-22T08:59:11.234Z,24.70
2017-07-22T09:01:40.789Z,25.60
2017-07-22T09:04:10.948Z,27.10
2017-07-22T09:06:40.900Z,26.90
2017-07-22T09:09:10.591Z,26.20
2017-07-22T09:11:40.127Z,28.00
2017-07-22T09:14:09.636Z,29.90
2017-07-22T09:16:39.355Z,30.80
2017-07-22T09:19:09.177Z,31.90
2017-07-22T09:21:38.745Z,32.30
2017-07-22T09:24:09.240Z,31.90
2017-07-22T09:26:40.627Z,33.10
2017-07-22T09:29:10.140Z,31.10
2017-07-22T09:31:39.962Z,33.00
2017-07-22T09:34:09.560Z,32.60
2017-07-22T09:36:39.139Z,32.50
2017-07-22T09:39:09.014Z,32.80
2017-07-22T09:41:40.742Z,33.60
2017-07-22T09:44:10.482Z,33.90
2017-07-22T09:46:40.116Z,33.00
2017-07-22T09:49:10.104Z,33.90
2017-07-22T09:51:39.953Z,35.10
2017-07-22T09:54:09.473Z,34.30
2017-07-22T09:56:39.186Z,33.60
2017-07-22T09:59:08.706Z,31.80
2017-07-22T10:01:38.593Z,29.80
2017-07-22T10:04:08.929Z,29.60
2017-07-22T10:06:38.516Z,28.90
2017-07-22T10:09:08.011Z,28.10
2017-07-22T10:11:37.822Z,27.00
2017-07-22T10:14:07.601Z,29.00
2017-07-22T10:16:37.178Z,28.60
2017-07-22T10:19:06.743Z,28.40
2017-07-22T10:21:37.451Z,31.10
2017-07-22T10:24:07.447Z,31.10
2017-07-22T10:26:37.295Z,30.00
2017-07-22T10:29:06.807Z,26.90
2017-07-22T10:31:36.794Z,28.70
2017-07-22T10:34:06.839Z,29.70
2017-07-22T10:36:36.403Z,29.40
2017-07-22T10:39:06.088Z,27.90
2017-07-22T10:41:35.606Z,29.20
2017-07-22T10:44:05.714Z,30.40
2017-07-22T10:46:36.157Z,29.70
2017-07-22T10:49:05.706Z,28.80
2017-07-22T10:51:35.738Z,30.60
2017-07-22T10:54:05.283Z,30.90
2017-07-22T10:56:36.079Z,31.00
2017-07-22T10:59:05.642Z,29.80
2017-07-22T11:01:35.177Z,30.20
2017-07-22T11:04:05.007Z,27.40
2017-07-22T11:06:35.473Z,27.20
2017-07-22T11:09:06.175Z,26.30
2017-07-22T11:11:35.763Z,26.60
2017-07-22T11:14:05.447Z,27.20
2017-07-22T11:16:35.281Z,27.50
2017-07-22T11:19:04.950Z,27.80
2017-07-22T11:21:35.402Z,28.10
2017-07-22T11:24:05.354Z,28.60
2017-07-22T11:26:34.919Z,28.60
2017-07-22T11:29:08.435Z,29.00
2017-07-22T11:31:38.543Z,27.20
2017-07-22T11:34:08.295Z,26.30
2017-07-22T11:36:48.332Z,26.70
2017-07-22T11:39:18.081Z,25.60
2017-07-22T11:41:47.938Z,25.70
2017-07-22T11:44:17.772Z,26.30
2017-07-22T11:46:47.367Z,26.20
2017-07-22T11:49:18.765Z,26.60
2017-07-22T11:51:48.444Z,26.50
2017-07-22T11:54:18.001Z,26.30
2017-07-22T11:56:47.991Z,26.50
2017-07-22T11:59:17.759Z,26.90
2017-07-22T12:01:47.285Z,26.90
2017-07-22T12:04:17.175Z,26.40
2017-07-22T12:06:46.700Z,26.10
2017-07-22T12:09:16.999Z,26.50
2017-07-22T12:11:46.643Z,26.50
2017-07-22T12:14:16.278Z,26.10
2017-07-22T12:16:46.087Z,25.80
2017-07-22T12:19:15.643Z,26.10
2017-07-22T12:21:45.248Z,26.00
2017-07-22T12:24:15.059Z,25.50
2017-07-22T12:26:44.960Z,25.40
2017-07-22T12:29:15.428Z,26.10
2017-07-22T12:31:45.029Z,26.60
2017-07-22T12:34:14.656Z,25.70
2017-07-22T12:36:44.627Z,25.70
2017-07-22T12:39:14.156Z,25.60
2017-07-22T12:41:43.815Z,25.80
2017-07-22T12:44:13.427Z,26.10
2017-07-22T12:47:25.283Z,25.90
2017-07-22T12:49:55.434Z,26.10
2017-07-22T12:52:25.061Z,26.40
2017-07-22T12:54:54.790Z,26.40
2017-07-22T12:57:24.638Z,26.60
2017-07-22T12:59:54.171Z,26.70
2017-07-22T13:02:23.701Z,26.80
2017-07-22T13:04:53.670Z,26.90
2017-07-22T13:07:23.299Z,26.70
2017-07-22T13:09:55.621Z,26.00
2017-07-22T13:12:25.167Z,26.40
2017-07-22T13:14:54.765Z,26.50
2017-07-22T13:17:24.782Z,27.00
2017-07-22T13:19:54.381Z,27.00
2017-07-22T13:22:24.098Z,26.90
2017-07-22T13:24:53.992Z,26.90
2017-07-22T13:27:23.558Z,26.90
2017-07-22T13:29:53.026Z,27.10
2017-07-22T13:32:22.741Z,26.70
2017-07-22T13:34:53.046Z,27.00
2017-07-22T13:37:22.958Z,27.50
2017-07-22T13:39:52.544Z,27.80
2017-07-22T13:42:22.074Z,27.80
2017-07-22T13:44:51.678Z,27.70
2017-07-22T13:47:21.387Z,27.70
2017-07-22T13:49:51.239Z,27.60
2017-07-22T13:52:20.852Z,27.70
2017-07-22T13:54:50.431Z,27.40
2017-07-22T13:57:20.348Z,27.30
2017-07-22T13:59:49.946Z,26.90
2017-07-22T14:02:26.095Z,26.90
2017-07-22T14:04:55.991Z,26.70
2017-07-22T14:07:25.608Z,26.60
2017-07-22T14:09:55.156Z,26.80
2017-07-22T14:12:24.706Z,26.60
2017-07-22T14:14:54.256Z,26.50
2017-07-22T14:17:24.051Z,26.80
2017-07-22T14:19:53.603Z,26.80
2017-07-22T14:22:23.251Z,26.90
2017-07-22T14:24:53.344Z,27.30
2017-07-22T14:27:23.111Z,27.20
2017-07-22T14:29:52.621Z,27.30
2017-07-22T14:32:22.655Z,27.10
2017-07-22T14:34:52.406Z,27.40
2017-07-22T14:37:24.381Z,27.50
2017-07-22T14:39:54.037Z,27.50
2017-07-22T14:42:23.774Z,27.30
2017-07-22T14:44:55.573Z,27.40
2017-07-22T14:47:25.228Z,27.40
2017-07-22T14:49:55.545Z,27.00
2017-07-22T14:52:25.322Z,26.70
2017-07-22T14:54:54.907Z,26.80
2017-07-22T14:57:24.670Z,26.90
2017-07-22T14:59:54.288Z,26.90
2017-07-22T15:02:23.978Z,27.20
2017-07-22T15:04:53.599Z,27.40
2017-07-22T15:07:23.190Z,27.70
2017-07-22T15:09:53.222Z,27.40
2017-07-22T15:12:22.918Z,27.30
2017-07-22T15:14:52.590Z,27.30
2017-07-22T15:17:22.165Z,27.10
2017-07-22T15:19:51.819Z,26.90
2017-07-22T15:22:26.698Z,27.00
2017-07-22T15:24:56.335Z,27.10
2017-07-22T15:27:26.143Z,27.20
2017-07-22T15:29:56.654Z,27.60
2017-07-22T15:32:26.322Z,27.60
2017-07-22T15:34:56.187Z,27.30
2017-07-22T15:37:25.768Z,26.90
2017-07-22T15:39:55.306Z,26.80
2017-07-22T15:42:34.407Z,26.90
2017-07-22T15:45:10.810Z,27.00
2017-07-22T15:47:41.670Z,27.00
2017-07-22T15:50:11.487Z,27.00
2017-07-22T15:52:42.518Z,27.00
2017-07-22T15:55:13.570Z,26.80
2017-07-22T15:57:43.148Z,26.80
2017-07-22T16:00:12.719Z,27.10
2017-07-22T16:02:42.653Z,27.00
2017-07-22T16:05:12.743Z,27.00
2017-07-22T16:07:42.386Z,27.10
2017-07-22T16:10:12.422Z,26.90
2017-07-22T16:12:42.631Z,26.90
2017-07-22T16:15:12.551Z,27.00
2017-07-22T16:17:52.437Z,27.10
2017-07-22T16:20:22.373Z,27.10
2017-07-22T16:22:52.000Z,27.30
2017-07-22T16:25:22.006Z,27.40
2017-07-22T16:27:52.051Z,27.50
2017-07-22T16:30:21.602Z,27.20
2017-07-22T16:32:51.473Z,26.70
2017-07-22T16:35:21.580Z,26.70
2017-07-22T16:37:51.679Z,26.90
2017-07-22T16:40:21.297Z,26.70
2017-07-22T16:42:51.276Z,26.40
2017-07-22T16:45:21.379Z,26.60
2017-07-22T16:47:51.821Z,26.80
2017-07-22T16:50:21.624Z,26.80
2017-07-22T16:52:51.945Z,26.70
2017-07-22T16:55:22.949Z,26.80
2017-07-22T16:57:55.562Z,26.70
2017-07-22T17:00:25.227Z,26.90
2017-07-22T17:02:55.046Z,26.80
2017-07-22T17:05:24.742Z,26.80
2017-07-22T17:07:54.403Z,26.70
2017-07-22T17:10:24.566Z,26.40
2017-07-22T17:13:00.678Z,26.50
2017-07-22T17:15:30.476Z,26.70
2017-07-22T17:17:59.981Z,26.40
2017-07-22T17:20:29.568Z,26.20
2017-07-22T17:22:59.256Z,26.30
2017-07-22T17:25:28.784Z,26.30
2017-07-22T17:27:58.558Z,26.30
2017-07-22T17:30:28.057Z,26.40
2017-07-22T17:32:57.569Z,26.00
2017-07-22T17:35:27.322Z,25.80
2017-07-22T17:37:56.836Z,25.90
2017-07-22T17:40:26.806Z,26.10
2017-07-22T17:42:58.870Z,26.30
2017-07-22T17:45:30.178Z,26.40
2017-07-22T17:48:00.050Z,26.20
2017-07-22T17:50:29.566Z,26.30
2017-07-22T17:52:59.091Z,26.40
2017-07-22T17:55:28.950Z,26.30
2017-07-22T17:57:58.486Z,26.20
2017-07-22T18:00:28.038Z,25.90
2017-07-22T18:02:58.425Z,25.70
2017-07-22T18:05:28.926Z,25.50
2017-07-22T18:08:01.200Z,25.40
2017-07-22T18:10:31.324Z,25.30
2017-07-22T18:13:00.910Z,25.10
2017-07-22T18:15:32.094Z,25.00
2017-07-22T18:18:01.682Z,25.00
2017-07-22T18:20:31.312Z,24.90
2017-07-22T18:23:01.423Z,24.60
2017-07-22T18:25:31.035Z,24.70
2017-07-22T18:28:01.130Z,24.70
2017-07-22T18:30:33.004Z,24.70
2017-07-22T18:33:04.362Z,24.60
2017-07-22T18:35:34.115Z,24.50
2017-07-22T18:38:04.070Z,24.40
2017-07-22T18:40:34.356Z,24.40
2017-07-22T18:43:04.099Z,24.30
2017-07-22T18:45:33.908Z,24.20
2017-07-22T18:48:03.625Z,24.10
2017-07-22T18:50:34.097Z,24.00
2017-07-22T18:53:04.359Z,24.00
2017-07-22T18:55:35.225Z,24.00
2017-07-22T18:58:04.793Z,23.90
2017-07-22T19:00:34.627Z,23.80
2017-07-22T19:03:04.243Z,23.50
2017-07-22T19:05:35.619Z,23.30
2017-07-22T19:08:06.567Z,23.40
2017-07-22T19:10:36.159Z,23.40
2017-07-22T19:26:25.039Z,23.30
2017-07-22T19:28:55.635Z,23.00
2017-07-22T19:31:44.572Z,23.00
2017-07-22T19:34:17.552Z,22.90
2017-07-22T19:36:48.224Z,22.70
2017-07-22T19:39:19.112Z,22.70
2017-07-22T19:41:48.806Z,22.70
2017-07-22T19:44:18.500Z,22.50
2017-07-22T19:46:49.139Z,22.50
2017-07-22T19:49:25.240Z,22.40
2017-07-22T19:51:58.342Z,22.10
2017-07-22T19:54:28.391Z,22.10
2017-07-22T19:56:58.018Z,22.20
2017-07-22T19:59:28.852Z,22.30
2017-07-22T20:01:59.250Z,22.30
2017-07-22T20:04:28.991Z,22.40
2017-07-22T20:07:03.165Z,22.40
2017-07-22T20:09:33.220Z,22.30
2017-07-22T20:12:03.598Z,22.30
2017-07-22T20:14:42.596Z,22.30
2017-07-22T20:17:13.588Z,22.20
2017-07-22T20:19:43.219Z,22.10
2017-07-22T20:22:12.775Z,22.20
2017-07-22T20:24:42.350Z,22.20
2017-07-22T20:27:12.054Z,22.30
2017-07-22T20:29:42.006Z,22.20
2017-07-22T20:32:13.938Z,22.20
2017-07-22T20:34:44.066Z,22.20
2017-07-22T20:37:13.580Z,22.20
2017-07-22T20:39:43.192Z,21.50
2017-07-22T20:42:13.207Z,21.60
2017-07-22T20:47:48.292Z,21.70
2017-07-22T20:50:25.306Z,21.90
2017-07-22T20:52:55.298Z,22.00
2017-07-22T20:55:40.960Z,22.10
2017-07-22T20:58:14.241Z,22.10
2017-07-22T21:00:44.221Z,22.20
2017-07-22T21:03:14.003Z,22.20
2017-07-22T21:05:44.742Z,22.10
2017-07-22T21:08:14.518Z,22.10
2017-07-22T21:10:44.078Z,22.10
2017-07-22T21:13:15.222Z,22.00
2017-07-22T21:16:01.503Z,21.80
2017-07-22T21:18:33.886Z,22.00
2017-07-22T21:21:08.881Z,22.00
2017-07-22T21:23:39.767Z,22.10
2017-07-22T21:26:13.871Z,21.80
2017-07-22T21:28:57.819Z,21.80
2017-07-22T21:31:28.393Z,21.60
2017-07-22T21:33:58.372Z,21.50
2017-07-22T21:36:29.354Z,21.60
2017-07-22T21:39:04.215Z,21.90
2017-07-22T21:41:34.114Z,22.00
2017-07-22T21:44:03.649Z,22.10
2017-07-22T21:46:33.180Z,22.10
2017-07-22T21:49:20.040Z,22.10
2017-07-22T21:51:49.778Z,22.00
2017-07-22T21:54:19.280Z,22.00
2017-07-22T21:56:50.903Z,22.00
2017-07-22T21:59:20.471Z,21.90
2017-07-22T22:01:50.174Z,21.70
2017-07-22T22:04:20.173Z,21.70
2017-07-22T22:06:51.604Z,21.70
2017-07-22T22:09:28.534Z,21.90
2017-07-22T22:11:58.714Z,21.80
2017-07-22T22:14:28.377Z,21.80
2017-07-22T22:16:58.459Z,21.90
2017-07-22T22:19:29.059Z,21.80
2017-07-22T22:22:00.651Z,21.60
2017-07-22T22:24:31.363Z,21.60
2017-07-22T22:27:08.070Z,21.60
2017-07-22T22:29:38.686Z,21.50
2017-07-22T22:32:08.658Z,21.40
2017-07-22T22:34:39.109Z,21.30
2017-07-22T22:37:09.971Z,21.30
2017-07-22T22:39:41.025Z,21.30
2017-07-22T22:42:12.299Z,21.30
2017-07-22T22:44:44.962Z,21.20
2017-07-22T22:47:17.955Z,21.20
2017-07-22T22:49:48.666Z,21.20
2017-07-22T22:52:19.021Z,21.40
2017-07-22T22:54:52.178Z,21.50
2017-07-22T22:57:24.333Z,21.60
2017-07-22T23:00:00.057Z,21.40
2017-07-22T23:02:35.344Z,21.30
2017-07-22T23:05:07.791Z,21.40
2017-07-22T23:07:38.839Z,21.30
2017-07-22T23:10:08.865Z,21.40
2017-07-22T23:12:38.688Z,21.40
2017-07-22T23:15:09.334Z,21.40
2017-07-22T23:17:40.971Z,21.40
2017-07-22T23:20:10.684Z,21.40
2017-07-22T23:22:40.202Z,21.40
2017-07-22T23:25:10.031Z,21.30
2017-07-22T23:27:39.560Z,21.20
2017-07-22T23:30:09.088Z,21.20
2017-07-22T23:32:39.183Z,21.10
2017-07-22T23:35:08.746Z,21.10
2017-07-22T23:37:38.671Z,21.00
2017-07-22T23:40:08.714Z,21.20
2017-07-22T23:42:39.101Z,21.30
2017-07-22T23:45:10.147Z,21.40
2017-07-22T23:47:40.487Z,21.50
2017-07-22T23:50:12.446Z,21.40
2017-07-22T23:52:44.205Z,21.50
2017-07-22T23:55:14.561Z,21.50
2017-07-22T23:57:45.252Z,21.40
